Time;durP1;ratioP1;P1;durP2;ratioP2;P2;SDS_P1;SDS_P2;PMS_P1;PMS_P2;Temp;Humidity;BMP_temperature;BMP_pressure;BME280_temperature;BME280_humidity;BME280_pressure;Samples;Min_cycle;Max_cycle;Signal;HPM_P1;HPM_P2
2021/03/30 00:01:45;;;;;;;37.03;23.58;;;;;;;;;;5035609;28;20029;-61
2021/03/30 00:04:12;;;;;;;38.10;24.25;;;;;;;;;;5035507;28;20032;-62
2021/03/30 00:06:37;;;;;;;36.40;24.23;;;;;;;;;;5035616;28;20067;-60
2021/03/30 00:09:03;;;;;;;35.15;23.88;;;;;;;;;;5035498;28;20099;-60
2021/03/30 00:11:30;;;;;;;37.17;24.35;;;;;;;;;;5017734;28;20099;-60
2021/03/30 00:13:55;;;;;;;37.22;24.27;;;;;;;;;;5034880;28;20025;-61
2021/03/30 00:16:21;;;;;;;34.03;23.27;;;;;;;;;;5018167;28;20018;-60
2021/03/30 00:18:46;;;;;;;31.20;23.73;;;;;;;;;;5016749;28;20413;-60
2021/03/30 00:21:11;;;;;;;32.80;23.27;;;;;;;;;;5017592;28;20038;-60
2021/03/30 00:23:37;;;;;;;35.70;24.00;;;;;;;;;;5035049;28;20048;-60
2021/03/30 00:26:05;;;;;;;37.80;24.45;;;;;;;;;;5034995;28;20469;-60
2021/03/30 00:28:30;;;;;;;36.60;24.35;;;;;;;;;;5035279;28;20044;-61
2021/03/30 00:30:55;;;;;;;31.98;24.35;;;;;;;;;;5035089;28;20033;-60
2021/03/30 00:33:21;;;;;;;33.75;24.33;;;;;;;;;;5017413;28;20017;-61
2021/03/30 00:35:47;;;;;;;35.53;23.63;;;;;;;;;;5034810;28;20030;-60
2021/03/30 00:38:12;;;;;;;34.50;23.85;;;;;;;;;;5017543;28;20477;-61
2021/03/30 00:40:38;;;;;;;34.38;22.98;;;;;;;;;;5035062;28;20025;-61
2021/03/30 00:43:03;;;;;;;37.92;24.67;;;;;;;;;;5034951;28;20415;-61
2021/03/30 00:45:29;;;;;;;36.45;24.60;;;;;;;;;;5017145;28;20485;-61
2021/03/30 00:47:55;;;;;;;33.95;24.05;;;;;;;;;;5034967;28;20017;-61
2021/03/30 00:50:22;;;;;;;35.50;24.65;;;;;;;;;;5034667;28;20480;-61
2021/03/30 00:52:50;;;;;;;36.50;25.08;;;;;;;;;;5017070;28;20391;-61
2021/03/30 00:55:41;;;;;;;36.55;25.23;;;;;;;;;;5034619;28;20083;-61
2021/03/30 00:58:07;;;;;;;34.78;23.77;;;;;;;;;;5034736;28;20461;-61
2021/03/30 01:00:33;;;;;;;35.40;24.75;;;;;;;;;;5034573;28;20021;-61
2021/03/30 01:02:59;;;;;;;33.53;25.13;;;;;;;;;;5034430;28;20451;-60
2021/03/30 01:05:24;;;;;;;37.42;26.50;;;;;;;;;;5034435;28;20045;-60
2021/03/30 01:08:00;;;;;;;36.63;26.20;;;;;;;;;;5016463;28;20159;-68
2021/03/30 01:10:26;;;;;;;37.00;27.27;;;;;;;;;;5034428;28;20041;-67
2021/03/30 01:13:07;;;;;;;38.53;26.20;;;;;;;;;;5034537;28;20406;-68
2021/03/30 01:15:32;;;;;;;37.30;26.52;;;;;;;;;;5016622;28;20025;-68
2021/03/30 01:18:16;;;;;;;37.38;26.13;;;;;;;;;;5033979;28;20022;-68
2021/03/30 01:20:45;;;;;;;35.80;25.08;;;;;;;;;;5016331;28;20061;-60
2021/03/30 01:23:28;;;;;;;34.95;26.48;;;;;;;;;;5034268;28;20065;-60
2021/03/30 01:26:20;;;;;;;33.83;26.20;;;;;;;;;;5034231;28;20131;-60
2021/03/30 01:29:03;;;;;;;41.03;26.63;;;;;;;;;;5017586;28;20053;-61
2021/03/30 01:31:32;;;;;;;38.85;27.15;;;;;;;;;;5033250;28;20473;-60
2021/03/30 01:34:00;;;;;;;39.50;26.37;;;;;;;;;;5033772;28;20033;-60
2021/03/30 01:36:28;;;;;;;37.70;26.35;;;;;;;;;;5033847;28;20272;-60
2021/03/30 01:38:55;;;;;;;35.50;26.25;;;;;;;;;;5033791;28;20021;-60
2021/03/30 01:41:21;;;;;;;32.63;24.60;;;;;;;;;;5033745;28;20504;-60
2021/03/30 01:43:47;;;;;;;36.17;25.52;;;;;;;;;;5034040;28;20026;-60
2021/03/30 01:46:13;;;;;;;35.45;26.02;;;;;;;;;;5033846;28;20034;-60
2021/03/30 01:48:40;;;;;;;37.65;25.90;;;;;;;;;;5016022;28;20017;-69
2021/03/30 01:51:06;;;;;;;35.70;25.75;;;;;;;;;;5015616;28;20382;-60
2021/03/30 01:53:34;;;;;;;36.17;25.58;;;;;;;;;;5033757;28;20100;-60
2021/03/30 01:56:00;;;;;;;36.25;25.67;;;;;;;;;;5033673;28;20033;-60
2021/03/30 01:58:26;;;;;;;37.85;26.52;;;;;;;;;;5033585;28;20017;-60
2021/03/30 02:00:53;;;;;;;35.42;25.13;;;;;;;;;;5033745;28;20029;-60
2021/03/30 02:03:19;;;;;;;37.70;26.90;;;;;;;;;;5032726;28;20488;-61
2021/03/30 02:05:45;;;;;;;38.70;28.08;;;;;;;;;;5033609;28;20025;-61
2021/03/30 02:08:11;;;;;;;36.90;26.45;;;;;;;;;;5033662;28;20504;-61
2021/03/30 02:10:48;;;;;;;40.70;28.33;;;;;;;;;;5033282;28;20481;-61
2021/03/30 02:13:23;;;;;;;39.28;28.48;;;;;;;;;;5033479;28;20044;-61
2021/03/30 02:15:53;;;;;;;40.88;29.20;;;;;;;;;;5033634;28;20026;-60
2021/03/30 02:18:19;;;;;;;39.80;27.92;;;;;;;;;;5033022;28;20071;-69
2021/03/30 02:20:51;;;;;;;43.40;29.40;;;;;;;;;;5033184;28;20112;-69
2021/03/30 02:23:23;;;;;;;43.85;29.92;;;;;;;;;;5033467;28;20128;-68
2021/03/30 02:25:51;;;;;;;41.85;29.77;;;;;;;;;;5033097;28;20061;-67
2021/03/30 02:28:21;;;;;;;41.72;28.95;;;;;;;;;;5032945;28;20449;-60
2021/03/30 02:30:46;;;;;;;43.10;30.58;;;;;;;;;;5015527;28;20025;-60
2021/03/30 02:33:17;;;;;;;41.35;29.98;;;;;;;;;;5033086;28;20040;-67
2021/03/30 02:35:43;;;;;;;43.83;30.17;;;;;;;;;;5033088;28;20033;-68
2021/03/30 02:38:09;;;;;;;43.13;29.50;;;;;;;;;;5015498;28;20017;-68
2021/03/30 02:40:34;;;;;;;47.92;30.58;;;;;;;;;;5032884;28;20465;-68
2021/03/30 02:43:00;;;;;;;43.83;30.98;;;;;;;;;;5035595;28;20036;-67
2021/03/30 02:45:27;;;;;;;49.50;33.10;;;;;;;;;;5036938;28;20078;-67
2021/03/30 02:47:55;;;;;;;46.60;32.72;;;;;;;;;;5036736;28;20238;-68
2021/03/30 02:50:21;;;;;;;46.08;31.42;;;;;;;;;;5037106;28;20037;-69
2021/03/30 02:52:47;;;;;;;48.55;32.35;;;;;;;;;;5036999;28;20013;-61
2021/03/30 02:55:12;;;;;;;44.08;31.23;;;;;;;;;;5036711;28;20083;-61
2021/03/30 02:57:41;;;;;;;45.13;31.08;;;;;;;;;;5017439;28;20458;-61
2021/03/30 03:00:11;;;;;;;48.00;32.13;;;;;;;;;;5036559;28;20022;-61
2021/03/30 03:02:37;;;;;;;43.80;31.23;;;;;;;;;;5019203;28;20470;-69
2021/03/30 03:05:03;;;;;;;45.03;31.38;;;;;;;;;;5019066;28;20033;-68
2021/03/30 03:07:28;;;;;;;43.70;29.23;;;;;;;;;;5036363;28;20334;-68
2021/03/30 03:09:55;;;;;;;44.15;29.88;;;;;;;;;;5036372;28;20022;-68
2021/03/30 03:12:21;;;;;;;41.25;30.90;;;;;;;;;;5018610;28;20489;-68
2021/03/30 03:14:48;;;;;;;46.20;30.67;;;;;;;;;;5036284;28;20520;-61
2021/03/30 03:17:13;;;;;;;47.53;31.45;;;;;;;;;;5036427;28;20421;-60
2021/03/30 03:19:41;;;;;;;43.85;29.60;;;;;;;;;;5035994;28;20077;-60
2021/03/30 03:22:07;;;;;;;43.75;30.13;;;;;;;;;;5036325;28;20112;-68
2021/03/30 03:24:33;;;;;;;42.65;31.52;;;;;;;;;;5036479;28;20497;-68
2021/03/30 03:26:59;;;;;;;43.97;32.08;;;;;;;;;;5036383;28;20040;-68
2021/03/30 03:29:24;;;;;;;46.20;32.50;;;;;;;;;;5035977;28;20504;-68
2021/03/30 03:31:50;;;;;;;45.00;32.60;;;;;;;;;;5018354;28;20124;-61
2021/03/30 03:34:19;;;;;;;47.08;33.55;;;;;;;;;;5036231;28;20105;-60
2021/03/30 03:36:50;;;;;;;52.13;36.60;;;;;;;;;;5036197;28;20029;-61
2021/03/30 03:39:17;;;;;;;47.15;34.95;;;;;;;;;;5018521;28;20025;-61
2021/03/30 03:41:43;;;;;;;50.80;34.80;;;;;;;;;;5035875;28;20025;-60
2021/03/30 03:44:09;;;;;;;48.75;34.10;;;;;;;;;;5018674;28;20033;-60
2021/03/30 03:46:35;;;;;;;49.15;33.85;;;;;;;;;;5035902;28;20021;-69
2021/03/30 03:49:01;;;;;;;48.83;32.65;;;;;;;;;;5035825;28;20401;-68
2021/03/30 03:51:31;;;;;;;48.28;32.17;;;;;;;;;;5035666;28;20026;-67
2021/03/30 03:53:58;;;;;;;50.70;33.33;;;;;;;;;;5034950;28;20427;-67
2021/03/30 03:56:28;;;;;;;46.08;30.85;;;;;;;;;;5036044;28;20040;-60
2021/03/30 03:58:57;;;;;;;43.40;30.80;;;;;;;;;;5018085;28;20029;-61
2021/03/30 04:01:29;;;;;;;47.08;31.10;;;;;;;;;;5035804;28;20044;-60
2021/03/30 04:03:59;;;;;;;44.42;29.85;;;;;;;;;;5017558;28;20032;-60
2021/03/30 04:06:52;;;;;;;46.75;30.85;;;;;;;;;;5035539;28;20029;-61
2021/03/30 04:09:19;;;;;;;43.72;30.17;;;;;;;;;;5032551;28;20096;-60
2021/03/30 04:11:46;;;;;;;46.30;29.98;;;;;;;;;;5035574;28;20108;-68
2021/03/30 04:14:12;;;;;;;46.75;31.27;;;;;;;;;;5017859;28;20401;-68
2021/03/30 04:16:37;;;;;;;46.30;29.20;;;;;;;;;;5035413;28;20040;-68
2021/03/30 04:19:08;;;;;;;45.53;30.77;;;;;;;;;;5000378;28;20543;-68
2021/03/30 04:21:35;;;;;;;44.10;28.40;;;;;;;;;;5035301;28;20135;-68
2021/03/30 04:24:01;;;;;;;40.47;25.17;;;;;;;;;;5017434;28;20083;-69
2021/03/30 04:26:27;;;;;;;43.42;28.90;;;;;;;;;;5017477;28;20477;-69
2021/03/30 04:28:53;;;;;;;47.22;29.88;;;;;;;;;;5035032;28;20428;-69
2021/03/30 04:31:18;;;;;;;47.70;31.83;;;;;;;;;;5000508;28;20025;-69
2021/03/30 04:33:44;;;;;;;50.90;32.33;;;;;;;;;;5033857;28;20056;-69
2021/03/30 04:36:10;;;;;;;48.60;30.30;;;;;;;;;;5029604;28;20047;-69
2021/03/30 04:38:35;;;;;;;50.42;30.20;;;;;;;;;;5034032;28;20025;-69
2021/03/30 04:41:01;;;;;;;51.17;32.47;;;;;;;;;;5034523;28;20022;-68
2021/03/30 04:43:26;;;;;;;49.50;31.98;;;;;;;;;;5033396;28;20477;-68
2021/03/30 04:45:52;;;;;;;51.88;31.05;;;;;;;;;;5034336;28;20036;-69
2021/03/30 04:48:18;;;;;;;50.55;31.92;;;;;;;;;;5034025;28;20101;-68
2021/03/30 04:50:44;;;;;;;52.70;32.05;;;;;;;;;;5034198;28;20029;-68
2021/03/30 04:53:11;;;;;;;47.85;30.92;;;;;;;;;;5013834;28;20388;-68
2021/03/30 04:55:37;;;;;;;51.90;31.70;;;;;;;;;;5033924;28;20017;-68
2021/03/30 04:58:03;;;;;;;48.30;31.17;;;;;;;;;;5034182;28;20071;-68
2021/03/30 05:00:28;;;;;;;46.45;28.45;;;;;;;;;;5033662;28;20036;-67
2021/03/30 05:02:55;;;;;;;45.58;28.23;;;;;;;;;;5033757;28;20021;-69
2021/03/30 05:05:20;;;;;;;44.28;29.13;;;;;;;;;;5033116;28;20037;-68
2021/03/30 05:07:46;;;;;;;44.50;28.95;;;;;;;;;;5033689;28;20059;-68
2021/03/30 05:10:12;;;;;;;45.33;28.83;;;;;;;;;;5015807;28;20101;-68
2021/03/30 05:12:38;;;;;;;44.05;28.63;;;;;;;;;;5033484;28;20025;-69
2021/03/30 05:15:04;;;;;;;58.00;40.70;;;;;;;;;;5016030;28;20013;-69
2021/03/30 05:17:30;;;;;;;52.63;32.45;;;;;;;;;;5015913;28;20370;-69
2021/03/30 05:19:55;;;;;;;44.85;31.33;;;;;;;;;;5033083;28;20068;-61
2021/03/30 05:22:21;;;;;;;41.25;27.13;;;;;;;;;;5015824;28;20022;-61
2021/03/30 05:24:46;;;;;;;41.90;26.95;;;;;;;;;;5015990;28;20036;-69
2021/03/30 05:27:12;;;;;;;40.25;26.92;;;;;;;;;;5015750;28;20038;-69
2021/03/30 05:29:43;;;;;;;41.85;26.13;;;;;;;;;;5031890;28;20021;-69
2021/03/30 05:32:13;;;;;;;37.85;24.40;;;;;;;;;;5031665;28;20029;-69
2021/03/30 05:34:39;;;;;;;36.33;24.23;;;;;;;;;;5032687;28;20022;-69
2021/03/30 05:37:05;;;;;;;36.75;24.67;;;;;;;;;;5015091;28;20017;-69
2021/03/30 05:39:31;;;;;;;38.85;25.65;;;;;;;;;;5033338;28;20026;-68
2021/03/30 05:41:56;;;;;;;38.58;24.50;;;;;;;;;;5034044;28;20025;-68
2021/03/30 05:44:22;;;;;;;38.40;25.40;;;;;;;;;;5033488;28;20037;-69
2021/03/30 05:46:59;;;;;;;45.92;31.50;;;;;;;;;;5033381;28;20026;-69
2021/03/30 05:49:25;;;;;;;45.08;29.90;;;;;;;;;;5032261;28;20033;-68
2021/03/30 05:51:50;;;;;;;84.78;64.05;;;;;;;;;;5033302;28;20355;-68
2021/03/30 05:54:19;;;;;;;39.42;27.58;;;;;;;;;;5015821;28;20040;-69
2021/03/30 05:56:45;;;;;;;32.75;21.70;;;;;;;;;;5033342;28;20462;-68
2021/03/30 05:59:11;;;;;;;33.90;24.67;;;;;;;;;;5033407;28;20026;-68
2021/03/30 06:01:37;;;;;;;32.05;23.15;;;;;;;;;;5033563;28;20014;-68
2021/03/30 06:04:03;;;;;;;30.35;19.52;;;;;;;;;;5033868;28;20037;-67
2021/03/30 06:06:28;;;;;;;50.22;28.30;;;;;;;;;;5033763;28;20362;-68
2021/03/30 06:08:54;;;;;;;70.70;37.83;;;;;;;;;;5033248;28;20037;-67
2021/03/30 06:11:19;;;;;;;47.80;28.15;;;;;;;;;;5033163;28;20030;-67
2021/03/30 06:13:46;;;;;;;30.52;18.73;;;;;;;;;;5015250;28;20029;-68
2021/03/30 06:16:34;;;;;;;46.90;25.20;;;;;;;;;;5033756;28;20045;-68
2021/03/30 06:19:02;;;;;;;57.70;29.60;;;;;;;;;;5039219;28;20044;-67
2021/03/30 06:21:28;;;;;;;58.38;33.53;;;;;;;;;;5022722;28;20037;-67
2021/03/30 06:23:55;;;;;;;55.55;35.55;;;;;;;;;;5039668;28;20040;-68
2021/03/30 06:26:23;;;;;;;29.17;18.13;;;;;;;;;;5039742;28;20021;-68
2021/03/30 06:28:49;;;;;;;26.45;17.25;;;;;;;;;;5036427;28;20692;-68
2021/03/30 06:31:15;;;;;;;19.85;13.98;;;;;;;;;;5038253;28;20017;-68
2021/03/30 06:33:51;;;;;;;20.83;12.90;;;;;;;;;;5039571;28;20061;-68
2021/03/30 06:36:19;;;;;;;21.55;14.98;;;;;;;;;;5038892;28;20120;-68
2021/03/30 06:38:52;;;;;;;26.25;17.33;;;;;;;;;;5039832;28;20024;-68
2021/03/30 06:46:54;;;;;;;25.35;16.63;;;;;;;;;;5039515;28;20038;-68
2021/03/30 06:49:20;;;;;;;22.15;13.85;;;;;;;;;;5036417;28;20477;-68
2021/03/30 06:51:46;;;;;;;24.20;15.13;;;;;;;;;;5021460;28;20173;-68
2021/03/30 06:54:12;;;;;;;23.35;14.77;;;;;;;;;;5021123;28;20025;-68
2021/03/30 06:56:45;;;;;;;21.77;12.50;;;;;;;;;;5038285;28;20485;-68
2021/03/30 06:59:11;;;;;;;22.05;14.23;;;;;;;;;;5038827;28;20026;-69
2021/03/30 07:01:37;;;;;;;19.23;12.63;;;;;;;;;;5037019;28;20388;-68
2021/03/30 07:04:03;;;;;;;20.25;12.20;;;;;;;;;;5039385;28;20034;-68
2021/03/30 07:06:29;;;;;;;18.40;13.00;;;;;;;;;;5021570;28;20028;-69
2021/03/30 07:08:55;;;;;;;16.85;12.02;;;;;;;;;;5039157;28;20116;-68
2021/03/30 07:11:20;;;;;;;18.42;12.93;;;;;;;;;;5038452;28;20115;-69
2021/03/30 07:13:46;;;;;;;23.38;15.20;;;;;;;;;;5039242;28;20565;-69
2021/03/30 07:16:15;;;;;;;26.02;16.80;;;;;;;;;;5039351;28;20446;-69
2021/03/30 07:18:44;;;;;;;18.65;12.30;;;;;;;;;;5038952;28;20041;-69
2021/03/30 07:21:13;;;;;;;18.85;13.40;;;;;;;;;;5020627;28;20056;-69
2021/03/30 07:23:41;;;;;;;31.08;20.30;;;;;;;;;;5037694;28;20033;-69
2021/03/30 07:26:06;;;;;;;29.52;20.73;;;;;;;;;;5038510;28;20021;-69
2021/03/30 07:28:39;;;;;;;31.45;20.73;;;;;;;;;;5036354;28;20037;-70
2021/03/30 07:31:06;;;;;;;34.28;22.23;;;;;;;;;;5036047;28;20057;-70
2021/03/30 07:33:38;;;;;;;32.22;21.55;;;;;;;;;;5035832;28;20013;-70
2021/03/30 07:36:04;;;;;;;29.80;21.17;;;;;;;;;;5035688;28;20032;-70
2021/03/30 07:38:32;;;;;;;31.80;22.73;;;;;;;;;;5035110;28;20014;-69
2021/03/30 07:40:58;;;;;;;36.78;21.63;;;;;;;;;;5035612;28;20044;-69
2021/03/30 07:43:25;;;;;;;38.08;22.95;;;;;;;;;;5035176;28;20021;-70
2021/03/30 07:45:52;;;;;;;36.72;22.75;;;;;;;;;;5035423;28;20033;-69
2021/03/30 07:48:18;;;;;;;25.13;18.83;;;;;;;;;;5034315;28;20032;-52
2021/03/30 07:50:50;;;;;;;35.53;22.20;;;;;;;;;;5035702;28;20037;-69
2021/03/30 07:53:34;;;;;;;32.00;20.27;;;;;;;;;;5035555;28;20029;-68
2021/03/30 07:55:59;;;;;;;32.83;22.05;;;;;;;;;;5017767;28;20441;-69
2021/03/30 07:58:44;;;;;;;30.98;21.98;;;;;;;;;;5017574;28;20041;-68
2021/03/30 08:01:11;;;;;;;31.20;20.13;;;;;;;;;;5035037;28;20025;-68
2021/03/30 08:03:38;;;;;;;32.60;22.25;;;;;;;;;;5017388;28;20497;-68
2021/03/30 08:06:05;;;;;;;35.45;22.98;;;;;;;;;;5015544;28;20063;-68
2021/03/30 08:08:43;;;;;;;34.83;22.70;;;;;;;;;;5033204;28;20032;-69
2021/03/30 08:11:09;;;;;;;38.42;22.65;;;;;;;;;;5033787;28;20091;-69
2021/03/30 08:13:35;;;;;;;32.88;21.45;;;;;;;;;;5034608;28;20097;-69
2021/03/30 08:16:02;;;;;;;34.08;22.00;;;;;;;;;;5017181;28;20029;-68
2021/03/30 08:18:28;;;;;;;31.60;21.75;;;;;;;;;;5034992;28;20408;-68
2021/03/30 08:20:59;;;;;;;33.83;21.63;;;;;;;;;;5034941;28;20044;-69
2021/03/30 08:23:25;;;;;;;32.08;21.20;;;;;;;;;;5034488;28;20036;-69
2021/03/30 08:25:53;;;;;;;33.30;21.52;;;;;;;;;;5034934;28;20544;-68
2021/03/30 08:28:37;;;;;;;28.77;18.77;;;;;;;;;;5017078;28;20064;-68
2021/03/30 08:31:04;;;;;;;31.50;20.65;;;;;;;;;;5034612;28;20032;-68
2021/03/30 08:33:35;;;;;;;32.53;21.73;;;;;;;;;;5034822;28;20017;-68
2021/03/30 08:36:20;;;;;;;33.92;21.40;;;;;;;;;;5034668;28;20025;-68
2021/03/30 08:38:48;;;;;;;39.80;23.23;;;;;;;;;;5016921;28;20040;-68
2021/03/30 08:41:34;;;;;;;36.25;22.88;;;;;;;;;;5034288;28;20112;-68
2021/03/30 08:44:13;;;;;;;35.42;22.75;;;;;;;;;;5026948;28;20188;-69
2021/03/30 08:46:39;;;;;;;34.92;21.73;;;;;;;;;;5016878;28;20033;-68
2021/03/30 08:49:23;;;;;;;26.60;16.88;;;;;;;;;;5016738;28;20021;-68
2021/03/30 08:52:09;;;;;;;32.45;20.35;;;;;;;;;;5034197;28;20120;-68
2021/03/30 08:54:50;;;;;;;28.73;18.70;;;;;;;;;;5034375;28;20026;-68
2021/03/30 08:57:20;;;;;;;33.75;22.15;;;;;;;;;;5034383;28;20474;-69
2021/03/30 08:59:46;;;;;;;29.98;18.13;;;;;;;;;;5016812;28;20029;-68
2021/03/30 09:02:13;;;;;;;27.98;16.17;;;;;;;;;;5034283;28;20026;-67
2021/03/30 09:04:40;;;;;;;29.33;16.23;;;;;;;;;;5034135;28;20033;-67
2021/03/30 09:07:06;;;;;;;31.80;19.10;;;;;;;;;;5033957;28;20036;-68
2021/03/30 09:09:35;;;;;;;29.05;17.20;;;;;;;;;;5034035;28;20040;-67
2021/03/30 09:12:02;;;;;;;27.52;18.63;;;;;;;;;;5033999;28;20090;-67
2021/03/30 09:14:29;;;;;;;35.97;19.92;;;;;;;;;;5033759;28;20029;-68
2021/03/30 09:17:06;;;;;;;34.10;20.48;;;;;;;;;;5033435;28;20389;-68
2021/03/30 09:19:38;;;;;;;34.97;22.00;;;;;;;;;;5015922;28;20060;-68
2021/03/30 09:22:11;;;;;;;35.72;21.60;;;;;;;;;;5016097;28;20034;-67
2021/03/30 09:24:59;;;;;;;36.47;22.48;;;;;;;;;;5033817;28;20095;-67
2021/03/30 09:27:30;;;;;;;37.75;22.75;;;;;;;;;;5033910;28;20056;-68
2021/03/30 09:29:58;;;;;;;33.15;20.58;;;;;;;;;;5033787;28;20072;-68
2021/03/30 09:32:25;;;;;;;31.10;17.85;;;;;;;;;;5015878;28;20025;-68
2021/03/30 09:34:50;;;;;;;31.50;19.83;;;;;;;;;;5033556;28;20067;-68
2021/03/30 09:37:16;;;;;;;30.50;19.45;;;;;;;;;;5015900;28;20381;-68
2021/03/30 09:39:43;;;;;;;33.30;19.55;;;;;;;;;;5033607;28;20029;-68
2021/03/30 09:42:11;;;;;;;31.95;20.33;;;;;;;;;;5033459;28;20440;-68
2021/03/30 09:44:43;;;;;;;34.88;21.70;;;;;;;;;;5033348;28;20041;-69
2021/03/30 09:47:10;;;;;;;29.13;16.63;;;;;;;;;;5015783;28;20390;-68
2021/03/30 09:49:35;;;;;;;34.28;20.95;;;;;;;;;;5033429;28;20105;-68
2021/03/30 09:52:02;;;;;;;26.20;16.10;;;;;;;;;;5032687;28;20044;-68
2021/03/30 09:54:38;;;;;;;28.77;16.77;;;;;;;;;;5015507;28;20022;-69
2021/03/30 09:57:10;;;;;;;18.38;11.73;;;;;;;;;;5014034;28;20026;-68
2021/03/30 09:59:37;;;;;;;25.15;15.13;;;;;;;;;;5022817;28;20025;-68
2021/03/30 10:02:05;;;;;;;21.05;13.10;;;;;;;;;;5032420;28;20026;-68
2021/03/30 10:04:35;;;;;;;23.33;14.27;;;;;;;;;;5043739;28;20040;-67
2021/03/30 10:07:11;;;;;;;20.23;12.07;;;;;;;;;;5032012;28;20107;-68
2021/03/30 10:09:54;;;;;;;25.05;15.30;;;;;;;;;;5007778;28;20025;-68
2021/03/30 10:12:27;;;;;;;17.77;10.93;;;;;;;;;;5032405;28;20041;-68
2021/03/30 10:14:52;;;;;;;20.65;12.85;;;;;;;;;;5032615;28;20021;-68
2021/03/30 10:17:18;;;;;;;21.63;13.90;;;;;;;;;;5033469;28;20025;-68
2021/03/30 10:19:49;;;;;;;17.52;11.40;;;;;;;;;;5003153;28;20053;-68
2021/03/30 10:22:21;;;;;;;23.27;14.15;;;;;;;;;;5013148;28;20108;-68
2021/03/30 10:25:05;;;;;;;20.50;12.70;;;;;;;;;;5013734;28;20030;-68
2021/03/30 10:27:31;;;;;;;21.10;12.18;;;;;;;;;;4993750;28;20077;-68
2021/03/30 10:29:57;;;;;;;18.80;12.50;;;;;;;;;;4990760;28;20022;-68
2021/03/30 10:32:22;;;;;;;18.65;11.77;;;;;;;;;;5013371;28;20033;-68
2021/03/30 10:34:48;;;;;;;18.50;12.10;;;;;;;;;;4995762;28;20018;-68
2021/03/30 10:37:15;;;;;;;16.73;10.68;;;;;;;;;;5013210;28;20062;-69
2021/03/30 10:39:42;;;;;;;19.20;12.05;;;;;;;;;;5013513;28;20447;-67
2021/03/30 10:42:15;;;;;;;17.17;10.68;;;;;;;;;;5013971;28;20022;-69
2021/03/30 10:44:45;;;;;;;15.73;11.38;;;;;;;;;;5012923;28;20045;-68
2021/03/30 10:47:17;;;;;;;19.63;11.88;;;;;;;;;;5011205;28;20026;-68
2021/03/30 10:49:44;;;;;;;16.02;10.98;;;;;;;;;;5013062;28;20057;-68
2021/03/30 10:52:15;;;;;;;19.25;10.77;;;;;;;;;;5013010;28;20045;-68
2021/03/30 10:54:41;;;;;;;18.58;10.82;;;;;;;;;;4995319;28;20490;-68
2021/03/30 10:57:13;;;;;;;17.90;10.32;;;;;;;;;;5013010;28;20021;-67
2021/03/30 10:59:39;;;;;;;18.35;11.13;;;;;;;;;;5012921;28;20026;-68
2021/03/30 11:02:05;;;;;;;20.67;13.68;;;;;;;;;;4995507;28;20018;-69
2021/03/30 11:04:30;;;;;;;17.70;10.27;;;;;;;;;;5016296;28;20045;-68
2021/03/30 11:06:56;;;;;;;15.82;9.50;;;;;;;;;;5016326;28;20432;-68
2021/03/30 11:09:24;;;;;;;17.33;11.38;;;;;;;;;;5031815;28;20070;-68
2021/03/30 11:11:49;;;;;;;17.30;11.50;;;;;;;;;;5016432;28;20021;-61
2021/03/30 11:14:16;;;;;;;16.55;10.05;;;;;;;;;;5018685;28;20053;-60
2021/03/30 11:16:42;;;;;;;15.63;9.70;;;;;;;;;;5016748;28;20014;-60
2021/03/30 11:19:11;;;;;;;14.75;9.30;;;;;;;;;;5005291;28;20371;-60
2021/03/30 11:21:36;;;;;;;13.75;10.10;;;;;;;;;;5019166;28;20025;-61
2021/03/30 11:24:04;;;;;;;11.35;7.70;;;;;;;;;;5036331;28;20128;-68
2021/03/30 11:26:30;;;;;;;14.15;9.50;;;;;;;;;;5035735;28;20032;-68
2021/03/30 11:28:57;;;;;;;15.75;9.27;;;;;;;;;;5036370;28;20397;-68
2021/03/30 11:36:46;;;;;;;21.75;15.32;;;;;;;;;;5035861;28;20052;-68
2021/03/30 11:39:12;;;;;;;16.00;11.88;;;;;;;;;;5035850;28;20109;-68
2021/03/30 11:41:38;;;;;;;13.70;8.63;;;;;;;;;;5035977;28;20057;-68
2021/03/30 11:44:03;;;;;;;13.30;9.15;;;;;;;;;;5018218;28;20053;-68
2021/03/30 11:46:29;;;;;;;13.85;8.68;;;;;;;;;;5017992;28;20037;-67
2021/03/30 11:48:55;;;;;;;11.93;8.93;;;;;;;;;;5035524;28;20039;-61
2021/03/30 11:51:21;;;;;;;11.30;8.95;;;;;;;;;;5017640;28;20087;-60
2021/03/30 11:53:46;;;;;;;10.50;8.27;;;;;;;;;;5017410;28;20029;-68
2021/03/30 11:56:12;;;;;;;11.60;7.35;;;;;;;;;;5035459;28;20029;-68
2021/03/30 11:58:37;;;;;;;11.38;7.97;;;;;;;;;;5035468;28;20013;-68
2021/03/30 12:01:03;;;;;;;13.95;7.60;;;;;;;;;;5035191;28;20037;-68
2021/03/30 12:03:29;;;;;;;11.63;7.80;;;;;;;;;;5035342;28;20473;-69
2021/03/30 12:05:54;;;;;;;11.85;7.82;;;;;;;;;;5035402;28;20060;-60
2021/03/30 12:08:20;;;;;;;11.30;8.27;;;;;;;;;;5035397;28;20036;-60
2021/03/30 12:10:45;;;;;;;14.25;8.82;;;;;;;;;;5035470;28;20029;-61
2021/03/30 12:13:11;;;;;;;10.25;7.68;;;;;;;;;;5035228;28;20096;-60
2021/03/30 12:15:36;;;;;;;13.75;9.32;;;;;;;;;;5034264;28;20033;-60
2021/03/30 12:18:02;;;;;;;13.68;8.73;;;;;;;;;;5035165;28;20022;-61
2021/03/30 12:20:27;;;;;;;13.82;9.43;;;;;;;;;;5017528;28;20045;-60
2021/03/30 12:22:53;;;;;;;10.48;7.97;;;;;;;;;;5035262;28;20044;-60
2021/03/30 12:25:18;;;;;;;12.35;8.75;;;;;;;;;;5017226;28;20499;-67
2021/03/30 12:27:44;;;;;;;13.20;8.35;;;;;;;;;;5034927;28;20013;-68
2021/03/30 12:30:10;;;;;;;12.93;9.27;;;;;;;;;;5034801;28;20026;-61
2021/03/30 12:32:37;;;;;;;10.43;8.90;;;;;;;;;;5000948;28;20052;-60
2021/03/30 12:35:03;;;;;;;15.35;9.80;;;;;;;;;;5017306;28;20036;-60
2021/03/30 12:37:28;;;;;;;12.93;8.95;;;;;;;;;;5017442;28;20377;-61
2021/03/30 12:39:54;;;;;;;13.85;8.32;;;;;;;;;;5034634;28;20116;-61
2021/03/30 12:42:21;;;;;;;14.65;8.75;;;;;;;;;;5034609;28;20014;-60
2021/03/30 12:44:47;;;;;;;11.50;9.07;;;;;;;;;;5017126;28;20397;-60
2021/03/30 12:47:13;;;;;;;12.88;9.13;;;;;;;;;;5034551;28;20021;-61
2021/03/30 12:49:38;;;;;;;11.70;8.35;;;;;;;;;;5034642;28;20064;-60
2021/03/30 12:52:04;;;;;;;11.70;8.70;;;;;;;;;;5034347;28;20021;-60
2021/03/30 12:54:31;;;;;;;13.65;7.28;;;;;;;;;;5034425;28;20091;-61
2021/03/30 12:56:56;;;;;;;11.77;8.48;;;;;;;;;;5034231;28;20017;-60
2021/03/30 12:59:22;;;;;;;14.95;8.75;;;;;;;;;;5034593;28;20029;-61
2021/03/30 13:01:47;;;;;;;14.90;8.90;;;;;;;;;;5034218;28;20088;-61
2021/03/30 13:04:13;;;;;;;10.23;7.55;;;;;;;;;;5034142;28;20033;-61
2021/03/30 13:06:38;;;;;;;9.75;6.57;;;;;;;;;;5016718;28;20032;-61
2021/03/30 13:09:04;;;;;;;9.20;7.50;;;;;;;;;;5034022;28;20029;-60
2021/03/30 13:11:29;;;;;;;10.18;6.10;;;;;;;;;;5034005;28;20013;-60
2021/03/30 13:13:55;;;;;;;9.85;7.10;;;;;;;;;;5034009;28;20030;-60
2021/03/30 13:16:21;;;;;;;12.80;8.75;;;;;;;;;;5033957;28;20018;-60
2021/03/30 13:18:46;;;;;;;10.60;7.30;;;;;;;;;;5033526;28;20041;-60
2021/03/30 13:21:12;;;;;;;10.75;8.05;;;;;;;;;;5034156;28;20488;-60
2021/03/30 13:23:38;;;;;;;13.05;8.07;;;;;;;;;;5033730;28;20029;-60
2021/03/30 13:26:05;;;;;;;28.58;8.73;;;;;;;;;;5033473;28;20021;-60
2021/03/30 13:28:30;;;;;;;10.90;6.95;;;;;;;;;;5033674;28;20055;-61
2021/03/30 13:30:56;;;;;;;10.88;7.10;;;;;;;;;;5033503;28;20021;-61
2021/03/30 13:33:21;;;;;;;9.43;7.22;;;;;;;;;;5033661;28;20025;-60
2021/03/30 13:35:48;;;;;;;9.70;6.93;;;;;;;;;;5033770;28;20021;-61
2021/03/30 13:38:13;;;;;;;11.68;7.35;;;;;;;;;;5033583;28;20030;-61
2021/03/30 13:40:39;;;;;;;37.92;7.90;;;;;;;;;;5033470;28;20021;-60
2021/03/30 13:43:06;;;;;;;10.30;6.25;;;;;;;;;;5033634;28;20038;-61
2021/03/30 13:45:36;;;;;;;9.13;6.82;;;;;;;;;;5015959;28;20022;-60
2021/03/30 13:48:03;;;;;;;10.37;7.07;;;;;;;;;;5016421;28;20385;-61
2021/03/30 13:50:33;;;;;;;9.02;7.13;;;;;;;;;;5033517;28;20427;-61
2021/03/30 13:52:59;;;;;;;9.68;7.07;;;;;;;;;;5020945;28;20025;-60
2021/03/30 13:55:25;;;;;;;8.07;6.55;;;;;;;;;;5033376;28;20384;-60
2021/03/30 13:57:50;;;;;;;9.38;7.00;;;;;;;;;;5033503;28;20017;-60
2021/03/30 14:00:17;;;;;;;10.52;6.25;;;;;;;;;;5033507;28;20033;-60
2021/03/30 14:02:43;;;;;;;10.73;6.72;;;;;;;;;;5033365;28;20044;-66
2021/03/30 14:05:09;;;;;;;9.60;6.60;;;;;;;;;;5015472;28;20017;-66
2021/03/30 14:07:34;;;;;;;11.02;7.13;;;;;;;;;;5033179;28;20061;-66
2021/03/30 14:10:00;;;;;;;11.38;7.32;;;;;;;;;;5033362;28;20353;-66
2021/03/30 14:13:04;;;;;;;9.48;6.85;;;;;;;;;;5033361;28;20406;-67
2021/03/30 14:18:23;;;;;;;9.07;6.22;;;;;;;;;;5033720;28;20029;-68
2021/03/30 14:20:55;;;;;;;8.57;6.35;;;;;;;;;;5013909;28;20053;-68
2021/03/30 14:23:32;;;;;;;8.45;6.75;;;;;;;;;;5013236;28;20034;-68
2021/03/30 14:26:00;;;;;;;7.57;6.10;;;;;;;;;;5013566;28;20057;-68
2021/03/30 14:28:27;;;;;;;7.55;5.22;;;;;;;;;;4995382;28;20029;-69
2021/03/30 14:30:53;;;;;;;6.82;5.85;;;;;;;;;;4995507;28;20029;-68
2021/03/30 14:33:18;;;;;;;6.10;4.65;;;;;;;;;;5013511;28;20025;-69
2021/03/30 14:35:44;;;;;;;4.97;4.43;;;;;;;;;;5012683;28;20022;-68
2021/03/30 14:38:10;;;;;;;6.43;4.65;;;;;;;;;;5013677;28;20413;-69
2021/03/30 14:40:43;;;;;;;6.57;4.53;;;;;;;;;;5016754;28;20022;-60